createdAt,value
2019-05-15T00:02:10.965Z,83.69
2019-05-15T00:07:30.258Z,83.83
2019-05-15T00:12:52.226Z,84.07
2019-05-15T00:18:14.157Z,83.86
2019-05-15T00:23:35.578Z,83.95
2019-05-15T00:29:11.140Z,83.94
2019-05-15T00:34:21.020Z,84.24
2019-05-15T00:39:42.775Z,85.12
2019-05-15T00:45:04.818Z,86.22
2019-05-15T00:50:28.673Z,86.60
2019-05-15T00:55:50.046Z,86.58
2019-05-15T01:01:11.609Z,86.64
2019-05-15T01:06:33.434Z,86.59
2019-05-15T01:11:54.751Z,86.81
2019-05-15T01:17:18.492Z,86.62
2019-05-15T01:22:40.531Z,86.01
2019-05-15T01:28:02.254Z,86.08
2019-05-15T01:33:24.118Z,86.14
2019-05-15T01:38:47.965Z,85.91
2019-05-15T01:44:09.826Z,85.69
2019-05-15T01:49:31.647Z,85.56
2019-05-15T01:54:53.027Z,85.51
2019-05-15T02:00:15.490Z,84.83
2019-05-15T02:05:39.005Z,84.73
2019-05-15T02:11:00.721Z,84.37
2019-05-15T02:16:22.600Z,84.50
2019-05-15T02:21:44.486Z,84.55
2019-05-15T02:27:08.871Z,83.76
2019-05-15T02:32:30.371Z,83.67
2019-05-15T02:37:52.318Z,83.76
2019-05-15T02:43:13.813Z,83.92
2019-05-15T02:48:35.790Z,83.94
2019-05-15T02:53:58.588Z,84.23
2019-05-15T02:59:20.167Z,84.37
2019-05-15T03:04:41.945Z,84.21
2019-05-15T03:10:03.673Z,84.75
2019-05-15T03:15:28.667Z,84.39
2019-05-15T03:20:50.171Z,83.76
2019-05-15T03:26:12.059Z,83.33
2019-05-15T03:31:50.769Z,83.08
2019-05-15T03:37:02.489Z,82.78
2019-05-15T03:42:21.134Z,82.44
2019-05-15T03:47:42.902Z,82.64
2019-05-15T03:53:04.417Z,82.61
2019-05-15T03:58:28.797Z,82.87
2019-05-15T04:03:49.879Z,83.30
2019-05-15T04:09:11.505Z,84.97
2019-05-15T04:14:33.462Z,85.39
2019-05-15T04:19:55.395Z,85.20
2019-05-15T04:25:19.126Z,84.74
2019-05-15T04:30:40.927Z,83.35
2019-05-15T04:36:02.564Z,83.15
2019-05-15T04:41:24.074Z,84.27
2019-05-15T04:46:45.643Z,83.32
2019-05-15T04:52:10.179Z,82.10
2019-05-15T04:57:34.086Z,83.41
2019-05-15T05:02:54.642Z,83.99
2019-05-15T05:08:19.720Z,83.52
2019-05-15T05:13:39.790Z,83.40
2019-05-15T05:19:01.325Z,82.21
2019-05-15T05:24:23.164Z,80.54
2019-05-15T05:29:44.793Z,80.37
2019-05-15T05:35:08.461Z,81.01
2019-05-15T05:40:30.451Z,80.29
2019-05-15T05:45:52.521Z,79.97
2019-05-15T05:51:14.516Z,79.97
2019-05-15T05:56:37.804Z,78.32
2019-05-15T06:01:59.700Z,77.26
2019-05-15T06:07:22.724Z,76.22
2019-05-15T06:12:44.418Z,75.36
2019-05-15T06:18:08.144Z,72.98
2019-05-15T06:23:34.706Z,72.56
2019-05-15T06:28:53.491Z,72.61
2019-05-15T06:34:14.752Z,71.71
2019-05-15T06:39:36.394Z,72.00
2019-05-15T06:44:58.944Z,74.08
2019-05-15T06:50:34.555Z,75.45
2019-05-15T06:55:58.310Z,76.43
2019-05-15T07:01:19.968Z,75.80
2019-05-15T07:06:41.572Z,74.66
2019-05-15T07:12:03.772Z,73.44
2019-05-15T07:17:25.413Z,70.39
2019-05-15T07:22:49.082Z,69.10
2019-05-15T07:28:10.543Z,68.62
2019-05-15T07:33:39.743Z,67.99
2019-05-15T07:38:57.952Z,67.85
2019-05-15T07:44:19.683Z,67.09
2019-05-15T07:49:41.314Z,65.77
2019-05-15T07:55:03.475Z,65.52
2019-05-15T08:00:28.891Z,64.95
2019-05-15T08:05:58.623Z,65.55
2019-05-15T08:11:20.620Z,64.70
2019-05-15T08:16:39.618Z,63.90
2019-05-15T08:22:01.747Z,63.16
2019-05-15T08:27:23.832Z,64.01
2019-05-15T08:32:49.069Z,64.65
2019-05-15T08:38:09.239Z,65.57
2019-05-15T08:43:31.679Z,68.20
2019-05-15T08:48:53.195Z,68.26
2019-05-15T08:54:14.811Z,68.74
2019-05-15T08:59:38.155Z,68.89
2019-05-15T09:05:00.079Z,71.26
2019-05-15T09:10:21.681Z,74.04
2019-05-15T09:15:43.178Z,73.83
2019-05-15T09:21:05.199Z,73.72
2019-05-15T09:26:28.377Z,75.25
2019-05-15T09:31:50.291Z,75.20
2019-05-15T09:37:12.004Z,75.71
2019-05-15T09:42:33.651Z,76.45
2019-05-15T09:47:55.500Z,77.16
2019-05-15T09:53:18.813Z,78.18
2019-05-15T09:58:40.685Z,78.97
2019-05-15T10:04:02.539Z,79.80
2019-05-15T10:09:23.969Z,81.22
2019-05-15T10:14:48.899Z,80.86
2019-05-15T10:20:09.867Z,80.36
2019-05-15T10:25:31.778Z,79.77
2019-05-15T10:30:53.714Z,79.47
2019-05-15T10:36:15.466Z,78.40
2019-05-15T10:41:38.858Z,77.44
2019-05-15T10:47:00.894Z,75.12
2019-05-15T10:52:22.981Z,76.84
2019-05-15T10:57:44.919Z,74.63
2019-05-15T11:03:08.710Z,74.09
2019-05-15T11:08:30.296Z,72.25
2019-05-15T11:13:51.655Z,67.61
2019-05-15T11:19:13.515Z,65.54
2019-05-15T11:24:38.362Z,63.62
2019-05-15T11:29:59.147Z,62.38
2019-05-15T11:35:20.635Z,60.99
2019-05-15T11:40:42.324Z,57.98
2019-05-15T11:46:04.636Z,57.35
2019-05-15T11:51:28.880Z,58.65
2019-05-15T11:56:50.219Z,56.72
2019-05-15T12:02:12.055Z,53.70
2019-05-15T12:07:33.781Z,52.85
2019-05-15T12:12:55.463Z,51.88
2019-05-15T12:18:16.787Z,50.90
2019-05-15T12:23:38.878Z,51.91
2019-05-15T12:29:00.919Z,53.39
2019-05-15T12:34:22.570Z,51.82
2019-05-15T12:39:43.736Z,49.02
2019-05-15T13:01:21.449Z,47.65
2019-05-15T13:06:53.147Z,47.97
2019-05-15T13:12:04.986Z,47.26
2019-05-15T13:17:28.949Z,47.62
2019-05-15T13:28:11.856Z,48.01
2019-05-15T13:33:33.658Z,48.89
2019-05-15T13:38:55.200Z,49.27
2019-05-15T13:44:18.769Z,49.08
2019-05-15T13:49:41.820Z,48.22
2019-05-15T13:55:03.615Z,45.95
2019-05-15T14:00:28.761Z,47.88
2019-05-15T14:05:49.988Z,47.62
2019-05-15T14:11:11.700Z,46.91
2019-05-15T14:16:33.700Z,47.21
2019-05-15T14:21:55.362Z,48.47
2019-05-15T14:27:19.408Z,50.01
2019-05-15T14:32:41.235Z,51.00
2019-05-15T14:38:06.716Z,51.29
2019-05-15T14:43:26.026Z,51.36
2019-05-15T14:48:49.018Z,53.00
2019-05-15T14:54:11.455Z,52.11
2019-05-15T14:59:33.190Z,53.47
2019-05-15T15:04:54.741Z,53.93
2019-05-15T15:10:19.717Z,55.53
2019-05-15T15:15:42.229Z,65.75
2019-05-15T15:21:04.037Z,68.45
2019-05-15T15:26:25.388Z,70.25
2019-05-15T15:31:49.421Z,71.82
2019-05-15T15:37:11.360Z,70.88
2019-05-15T15:42:33.180Z,69.38
2019-05-15T15:47:54.864Z,69.78
2019-05-15T15:53:16.046Z,70.31
2019-05-15T15:58:37.983Z,68.52
2019-05-15T16:03:59.723Z,68.70
2019-05-15T16:09:21.411Z,71.39
2019-05-15T16:14:42.829Z,71.84
2019-05-15T16:20:05.265Z,73.18
2019-05-15T16:25:28.819Z,72.68
2019-05-15T16:30:51.728Z,74.14
2019-05-15T16:36:13.684Z,74.41
2019-05-15T16:41:35.348Z,73.31
2019-05-15T16:46:58.846Z,72.06
2019-05-15T16:52:20.789Z,72.06
2019-05-15T16:57:42.953Z,71.85
2019-05-15T17:03:13.717Z,73.07
2019-05-15T17:08:29.495Z,73.01
2019-05-15T17:13:52.874Z,74.13
2019-05-15T17:19:14.549Z,73.92
2019-05-15T17:24:36.545Z,73.33
2019-05-15T17:29:59.886Z,73.73
2019-05-15T17:35:21.462Z,73.37
2019-05-15T17:40:43.150Z,73.59
2019-05-15T17:46:05.215Z,74.21
2019-05-15T17:51:27.715Z,74.39
2019-05-15T17:56:49.715Z,75.87
2019-05-15T18:02:11.466Z,76.46
2019-05-15T18:07:33.266Z,77.12
2019-05-15T18:12:54.746Z,79.86
2019-05-15T18:18:18.535Z,79.86
2019-05-15T18:23:40.221Z,80.41
2019-05-15T18:29:02.290Z,80.41
2019-05-15T18:34:24.166Z,76.86
2019-05-15T18:39:48.173Z,76.86
2019-05-15T18:45:10.731Z,72.24
2019-05-15T18:50:32.481Z,72.24
2019-05-15T18:55:54.419Z,73.21
2019-05-15T19:01:17.798Z,71.19
2019-05-15T19:06:39.791Z,71.55
2019-05-15T19:12:01.107Z,71.92
2019-05-15T19:17:23.398Z,71.90
2019-05-15T19:22:44.755Z,71.90
2019-05-15T19:28:08.518Z,75.77
2019-05-15T19:33:36.930Z,77.37
2019-05-15T19:38:54.027Z,80.90
2019-05-15T19:44:17.838Z,80.90
2019-05-15T19:49:42.429Z,81.42
2019-05-15T19:55:04.438Z,83.00
2019-05-15T20:00:28.518Z,83.85
2019-05-15T20:05:50.206Z,82.79
2019-05-15T20:11:12.031Z,83.02
2019-05-15T20:16:33.904Z,82.88
2019-05-15T20:21:55.858Z,81.44
2019-05-15T20:27:18.787Z,80.62
2019-05-15T20:32:40.785Z,80.47
2019-05-15T20:38:02.663Z,81.81
2019-05-15T20:43:24.304Z,81.18
2019-05-15T20:48:45.728Z,81.60
2019-05-15T20:54:08.381Z,82.60
2019-05-15T20:59:30.417Z,82.84
2019-05-15T21:04:52.332Z,83.60
2019-05-15T21:10:14.238Z,83.70
2019-05-15T21:15:36.207Z,82.96
2019-05-15T21:20:58.011Z,82.57
2019-05-15T21:26:19.790Z,81.98
2019-05-15T21:31:41.553Z,81.07
2019-05-15T21:37:03.267Z,80.71
2019-05-15T21:42:24.690Z,79.17
2019-05-15T21:47:46.333Z,78.29
2019-05-15T21:53:07.964Z,77.90
2019-05-15T21:58:29.743Z,77.47
2019-05-15T22:03:52.934Z,76.64
2019-05-15T22:09:18.338Z,76.62
2019-05-15T22:14:40.411Z,77.03
2019-05-15T22:20:02.147Z,78.22
2019-05-15T22:25:23.977Z,78.99
2019-05-15T22:30:47.836Z,78.30
2019-05-15T22:36:09.503Z,80.29
2019-05-15T22:41:31.375Z,80.18
2019-05-15T22:46:53.151Z,81.34
2019-05-15T22:52:14.844Z,81.34
2019-05-15T22:57:38.858Z,81.76
2019-05-15T23:03:00.766Z,84.39
2019-05-15T23:08:22.847Z,85.15
2019-05-15T23:13:45.358Z,85.92
2019-05-15T23:19:08.156Z,87.34
2019-05-15T23:24:29.918Z,88.68
2019-05-15T23:29:51.562Z,88.78
2019-05-15T23:35:13.551Z,88.51
2019-05-15T23:40:35.258Z,88.00
2019-05-15T23:45:58.755Z,86.01
2019-05-15T23:51:20.381Z,86.29
2019-05-15T23:56:42.293Z,87.62
